Shannon, MS (38868)

7:34 PM CDT on August 01, 2014 (GMT -0500)
RAWS HIGHWAY 41 MS US (MTROM6) Elev 319 ft | 34.09 °N, 88.86 °W | Change Station

Current weather conditions updated 42 minutes ago

Partly Cloudy
Partly Cloudy
81 °F
Feels Like 85 °F
N
0
Wind Variable Wind from North
Gusts 2.0 mph

Tomorrow is forecast to be Cooler than today. A few thunderstorms possible.

Today
High -- | Low -- °F
--% Chance of Precip.
Yesterday
High -- | Low -- °F
Precip. -- in
6:06 AM 7:55 PM
Waxing Crescent, 30% visible
Pressure 29.98 in
Visibility 10.0 miles
Clouds Few 12000 ft
Heat Index 85 °F
Dew Point 72 °F
Humidity 73%
Rainfall 0.00 in
Snow Depth Not available.
UV 1 out of 12
Pollen 4.90 out of 12
Air Quality Not available.
Flu Activity Not available.
METAR KTUP 012353Z AUTO 06006KT 10SM FEW120 28/18 A2999 RMK AO2 SLP152 T02830183 10311 20283 55003

More Conditions Fewer Conditions

Pressure 29.98 in
Visibility 10.0 miles
Clouds Few 12000 ft
Heat Index 85 °F
Dew Point 72 °F
Humidity 73%
Rainfall 0.00 in
Snow Depth Not available.
UV 1 out of 12
Pollen 4.90 out of 12
Air Quality Not available.
Flu Activity Not available.
METAR KTUP 012353Z AUTO 06006KT 10SM FEW120 28/18 A2999 RMK AO2 SLP152 T02830183 10311 20283 55003

More Conditions Fewer Conditions

10-Day Weather Forecast

Almanac

Astronomy

Aug. 01, 2014 Rise Set
Actual Time 6:06 AM CDT 7:55 PM CDT
Civil Twilight 5:38 AM CDT 8:23 PM CDT
Nautical Twilight 5:05 AM CDT 8:56 PM CDT
Astronomical Twilight 4:30 AM CDT 9:31 PM CDT
Moon 11:13 AM CDT (8/1) 10:58 PM CDT (8/1)
Length of Visible Light 14h 44m
Length of Day
13h 49m
Tomorrow will be 1m 35s shorter.
Waxing Crescent, 30% of the Moon is Illuminated
Today
Waxing Crescent
Aug 3
First Quarter
Aug 10
Full
Aug 17
Last Quarter
Aug 25
New

Today's Extremes

State Highs State Lows

Community

WunderPhotos

Upload Photos

1,739,763 photos uploaded!

Nearby

Snow Depth

Station Depth Elevation
No new snow has been reported.

Earthquake Activity

City Distance Mag. Time & Date
No recent earthquake activity has been reported nearby.
Minimum magnitude displayed is 2.5.

Coastal Water Temperatures

Place Temperature
No Stations Reporting

Nearby Weather Stations

Station Location Temp. Heat Index Dew Point Humidity Wind Precip. Elev Updated Type
RAWS HIGHWAY 41 MS, Algoma, MS 81 °F 85 °F 72 °F 73% North  at  0 mph 0.00 in / hr 319 ft 6:52 PM CDT MADIS
Lee Acres, Tupelo, MS 82.7 °F 87 °F 70 °F 65% NNE  at  3.0 mph 0.00 in / hr 340 ft 7:33 PM CDT Rapid Fire
Georgetown in The Villages, Tupelo, MS 82.6 °F 86 °F 69 °F 64% NNW  at  3.2 mph - / hr 312 ft 7:20 PM CDT Normal
Birmingham Ridge / NW Lee County, MS, Saltillo, MS 80.4 °F 83 °F 68 °F 65% West  at  0.0 mph 0.00 in / hr 308 ft 7:34 PM CDT Rapid Fire
APRSWXNET Sherman MS , Belden, MS 83 °F 88 °F 72 °F 69% SE  at  0 mph 0.00 in / hr 360 ft 7:03 PM CDT MADIS
APRSWXNET Sherman MS , Blue Springs, MS 82 °F 85 °F 69 °F 65% NE  at  0 mph 0.00 in / hr 370 ft 6:39 PM CDT MADIS

Show More Stations Show Fewer Stations